Time;durP1;ratioP1;P1;durP2;ratioP2;P2;SDS_P1;SDS_P2;PMS_P1;PMS_P2;Temp;Humidity;BMP_temperature;BMP_pressure;BME280_temperature;BME280_humidity;BME280_pressure;Samples;Min_cycle;Max_cycle;Signal;HPM_P1;HPM_P2
2021/05/29 00:00:14;;;;;;;9.60;6.20;;;10.00;99.90;;;;;;5075764;28;20977;-47
2021/05/29 00:02:40;;;;;;;8.37;6.73;;;10.00;99.90;;;;;;5084396;28;20675;-47
2021/05/29 00:05:08;;;;;;;14.10;7.30;;;10.00;99.90;;;;;;5081425;28;20190;-54
2021/05/29 00:07:34;;;;;;;8.77;6.90;;;9.90;99.90;;;;;;5079656;28;20230;-49
2021/05/29 00:10:00;;;;;;;12.00;7.17;;;9.90;99.90;;;;;;5067552;28;20249;-52
2021/05/29 00:12:27;;;;;;;7.67;6.50;;;9.80;99.90;;;;;;5082229;28;20558;-45
2021/05/29 00:14:54;;;;;;;9.23;6.80;;;9.80;99.90;;;;;;5083471;28;20285;-51
2021/05/29 00:17:20;;;;;;;12.20;7.23;;;9.80;99.90;;;;;;5077683;28;20221;-46
2021/05/29 00:19:46;;;;;;;9.60;7.77;;;9.80;99.90;;;;;;5084645;28;20216;-50
2021/05/29 00:22:13;;;;;;;11.93;6.90;;;9.80;99.90;;;;;;5075879;28;20790;-45
2021/05/29 00:24:39;;;;;;;12.53;7.13;;;9.90;99.90;;;;;;5065691;28;20210;-47
2021/05/29 00:27:06;;;;;;;10.67;7.50;;;9.90;99.90;;;;;;5080957;28;20218;-53
2021/05/29 00:29:33;;;;;;;9.80;7.47;;;9.90;99.90;;;;;;5077756;28;20673;-45
2021/05/29 00:31:59;;;;;;;11.43;7.33;;;9.90;99.90;;;;;;5077377;28;20205;-50
2021/05/29 00:34:25;;;;;;;9.37;7.73;;;9.80;99.90;;;;;;5083006;28;20269;-45
2021/05/29 00:36:51;;;;;;;11.33;7.60;;;9.80;99.90;;;;;;5083548;28;20224;-52
2021/05/29 00:39:17;;;;;;;9.37;6.70;;;9.80;99.90;;;;;;5080396;28;20198;-47
2021/05/29 00:41:43;;;;;;;10.37;6.37;;;9.80;99.90;;;;;;5069997;28;20224;-45
2021/05/29 00:44:12;;;;;;;7.80;6.20;;;9.80;99.90;;;;;;5073376;28;20213;-46
2021/05/29 00:46:39;;;;;;;8.87;5.93;;;9.70;99.90;;;;;;5080082;28;20737;-49
2021/05/29 00:49:05;;;;;;;8.70;6.33;;;9.70;99.90;;;;;;5079985;28;20197;-51
2021/05/29 00:51:32;;;;;;;10.00;5.57;;;9.70;99.90;;;;;;5077244;28;20202;-49
2021/05/29 00:53:58;;;;;;;7.80;5.50;;;9.70;99.90;;;;;;5081800;28;20327;-51
2021/05/29 00:56:25;;;;;;;7.87;5.07;;;9.70;99.90;;;;;;5068261;28;20214;-47
2021/05/29 00:58:51;;;;;;;9.93;6.10;;;9.60;99.90;;;;;;5081497;28;20323;-52
2021/05/29 01:01:17;;;;;;;7.77;5.57;;;9.70;99.90;;;;;;5079874;28;20318;-47
2021/05/29 01:03:45;;;;;;;10.93;6.30;;;9.60;99.90;;;;;;5079288;28;20201;-49
2021/05/29 01:06:11;;;;;;;9.67;5.43;;;9.70;99.90;;;;;;5076182;28;20270;-49
2021/05/29 01:08:37;;;;;;;8.03;5.37;;;9.60;99.90;;;;;;5076744;28;20313;-48
2021/05/29 01:11:03;;;;;;;10.63;5.33;;;9.60;99.90;;;;;;5068017;28;20206;-54
2021/05/29 01:13:31;;;;;;;10.77;6.00;;;9.60;99.90;;;;;;5073882;28;20201;-45
2021/05/29 01:16:03;;;;;;;10.40;6.13;;;9.60;99.90;;;;;;5081899;28;20219;-51
2021/05/29 01:18:29;;;;;;;6.40;5.23;;;9.60;99.90;;;;;;5077772;28;20271;-45
2021/05/29 01:21:00;;;;;;;7.47;5.90;;;9.70;99.90;;;;;;5081143;28;20271;-51
2021/05/29 01:23:27;;;;;;;7.73;5.77;;;9.60;99.90;;;;;;5078101;28;20189;-47
2021/05/29 01:25:53;;;;;;;9.53;5.57;;;9.60;99.90;;;;;;5077886;28;20198;-52
2021/05/29 01:28:23;;;;;;;8.60;5.80;;;9.60;99.90;;;;;;5070503;28;20217;-45
2021/05/29 01:30:52;;;;;;;10.10;6.90;;;9.70;99.90;;;;;;5082698;28;20237;-52
2021/05/29 01:33:20;;;;;;;13.13;7.30;;;9.70;99.90;;;;;;5081510;28;20206;-48
2021/05/29 01:35:47;;;;;;;9.53;6.60;;;9.60;99.90;;;;;;5083321;28;20194;-48
2021/05/29 01:38:15;;;;;;;9.07;7.10;;;9.60;99.90;;;;;;5079418;28;20975;-45
2021/05/29 01:40:43;;;;;;;8.93;6.40;;;9.60;99.90;;;;;;5083203;28;20202;-45
2021/05/29 01:43:11;;;;;;;12.50;6.27;;;9.60;99.90;;;;;;5066679;28;20198;-46
2021/05/29 01:45:38;;;;;;;10.83;6.50;;;9.60;99.90;;;;;;5088805;28;20247;-46
2021/05/29 01:48:06;;;;;;;11.57;5.90;;;9.60;99.90;;;;;;5079371;28;20214;-51
2021/05/29 01:50:33;;;;;;;9.33;5.67;;;9.60;99.90;;;;;;5075180;28;20205;-45
2021/05/29 01:53:03;;;;;;;6.83;5.93;;;9.60;99.90;;;;;;5089615;28;20202;-51
2021/05/29 01:55:32;;;;;;;9.20;5.70;;;9.60;99.90;;;;;;5082276;28;20198;-48
2021/05/29 01:58:00;;;;;;;7.60;6.17;;;9.60;99.90;;;;;;5066574;28;20217;-47
2021/05/29 02:00:28;;;;;;;15.40;7.67;;;9.60;99.90;;;;;;5080845;28;20953;-45
2021/05/29 02:02:56;;;;;;;9.83;6.47;;;9.60;99.90;;;;;;5085428;28;20577;-51
2021/05/29 02:05:24;;;;;;;12.40;6.70;;;9.60;99.90;;;;;;5075795;28;20193;-47
2021/05/29 02:07:50;;;;;;;12.10;6.43;;;9.70;99.90;;;;;;5082462;28;20694;-52
2021/05/29 02:10:19;;;;;;;8.47;6.43;;;9.70;99.90;;;;;;5077193;28;20194;-45
2021/05/29 02:12:48;;;;;;;10.90;6.90;;;9.70;99.90;;;;;;5068109;28;20206;-49
2021/05/29 02:15:17;;;;;;;12.07;6.67;;;9.70;99.90;;;;;;5078269;28;20186;-45
2021/05/29 02:17:45;;;;;;;13.13;6.93;;;9.70;99.90;;;;;;5081672;28;20820;-49
2021/05/29 02:20:12;;;;;;;8.90;5.90;;;9.70;99.90;;;;;;5073971;28;20936;-46
2021/05/29 02:22:39;;;;;;;8.00;5.47;;;9.70;99.90;;;;;;5086150;28;20283;-45
2021/05/29 02:25:07;;;;;;;9.23;5.20;;;9.70;99.90;;;;;;5079184;28;20198;-54
2021/05/29 02:27:33;;;;;;;8.60;5.33;;;9.60;99.90;;;;;;5082182;28;20231;-45
2021/05/29 02:30:00;;;;;;;7.80;5.13;;;9.60;99.90;;;;;;5065669;28;20222;-51
2021/05/29 02:32:27;;;;;;;6.80;4.53;;;9.60;99.90;;;;;;5080078;28;20856;-46
2021/05/29 02:34:53;;;;;;;6.17;4.47;;;9.60;99.90;;;;;;5081781;28;20716;-53
2021/05/29 02:37:19;;;;;;;9.77;4.73;;;9.60;99.90;;;;;;5075553;28;20270;-45
2021/05/29 02:39:46;;;;;;;9.87;4.97;;;9.60;99.90;;;;;;5082226;28;20553;-46
2021/05/29 02:42:12;;;;;;;7.80;4.53;;;9.50;99.90;;;;;;5072831;28;20961;-45
2021/05/29 02:44:38;;;;;;;6.47;4.63;;;9.60;99.90;;;;;;5067452;28;20800;-45
2021/05/29 02:47:04;;;;;;;9.23;4.40;;;9.60;99.90;;;;;;5073250;28;20230;-54
2021/05/29 02:49:32;;;;;;;7.80;4.87;;;9.50;99.90;;;;;;5080687;28;20209;-45
2021/05/29 02:51:58;;;;;;;8.03;4.60;;;9.50;99.90;;;;;;5075880;28;20202;-52
2021/05/29 02:54:24;;;;;;;11.20;5.17;;;9.50;99.90;;;;;;5075097;28;21047;-45
2021/05/29 02:56:50;;;;;;;8.20;4.43;;;9.50;99.90;;;;;;5082097;28;20221;-51
2021/05/29 02:59:16;;;;;;;6.43;4.73;;;9.50;99.90;;;;;;5060855;28;20264;-45
2021/05/29 03:01:43;;;;;;;7.73;4.90;;;9.50;99.90;;;;;;5075372;28;20226;-48
2021/05/29 03:04:09;;;;;;;8.47;5.47;;;9.50;99.90;;;;;;5079225;28;20190;-45
2021/05/29 03:06:37;;;;;;;7.47;5.13;;;9.40;99.90;;;;;;5077468;28;20226;-47
2021/05/29 03:09:04;;;;;;;9.00;5.17;;;9.40;99.90;;;;;;5072407;28;20297;-51
2021/05/29 03:11:33;;;;;;;9.23;6.33;;;9.40;99.90;;;;;;5081296;28;20194;-51
2021/05/29 03:13:59;;;;;;;10.27;6.00;;;9.40;99.90;;;;;;5059342;28;20202;-53
2021/05/29 03:16:26;;;;;;;6.90;5.97;;;9.40;99.90;;;;;;5072716;28;20825;-51
2021/05/29 03:18:52;;;;;;;10.17;6.27;;;9.40;99.90;;;;;;5080818;28;20198;-50
2021/05/29 03:21:18;;;;;;;11.27;6.13;;;9.40;99.90;;;;;;5080558;28;20214;-45
2021/05/29 03:23:45;;;;;;;10.03;5.80;;;9.30;99.90;;;;;;5084387;28;20247;-47
2021/05/29 03:26:11;;;;;;;10.30;5.33;;;9.40;99.90;;;;;;5081207;28;20259;-44
2021/05/29 03:28:37;;;;;;;6.50;5.33;;;9.30;99.90;;;;;;5079748;28;20202;-48
2021/05/29 03:31:03;;;;;;;9.50;5.90;;;9.40;99.90;;;;;;5067135;28;20600;-51
2021/05/29 03:33:29;;;;;;;6.63;5.17;;;9.40;99.90;;;;;;5070534;28;20313;-48
2021/05/29 03:35:55;;;;;;;10.77;5.70;;;9.40;99.90;;;;;;5081144;28;20186;-44
2021/05/29 03:38:21;;;;;;;10.37;5.70;;;9.40;99.90;;;;;;5080263;28;20594;-46
2021/05/29 03:40:49;;;;;;;9.10;5.87;;;9.40;99.90;;;;;;5079486;28;20217;-50
2021/05/29 03:43:15;;;;;;;8.67;6.03;;;9.40;99.90;;;;;;5079962;28;20217;-50
2021/05/29 03:45:41;;;;;;;10.30;5.40;;;9.40;99.90;;;;;;5066514;28;20577;-53
2021/05/29 03:48:08;;;;;;;7.23;5.73;;;9.30;99.90;;;;;;5082632;28;20214;-45
2021/05/29 03:50:38;;;;;;;11.30;5.57;;;9.30;99.90;;;;;;5083575;28;20206;-52
2021/05/29 03:53:05;;;;;;;9.73;6.40;;;9.40;99.90;;;;;;5085387;28;20202;-47
2021/05/29 03:55:32;;;;;;;9.93;6.73;;;9.40;99.90;;;;;;5079323;28;20210;-51
2021/05/29 03:58:00;;;;;;;9.90;6.73;;;9.40;99.90;;;;;;5074316;28;20221;-49
2021/05/29 04:00:27;;;;;;;13.70;7.47;;;9.40;99.90;;;;;;5069960;28;20259;-45
2021/05/29 04:02:53;;;;;;;11.63;7.30;;;9.40;99.90;;;;;;5080034;28;20225;-47
2021/05/29 04:05:20;;;;;;;10.30;7.10;;;9.40;99.90;;;;;;5085219;28;20198;-45
2021/05/29 04:07:46;;;;;;;11.93;7.00;;;9.40;99.90;;;;;;5081031;28;20702;-53
2021/05/29 04:10:14;;;;;;;10.83;7.17;;;9.40;99.90;;;;;;5079084;28;20205;-45
2021/05/29 04:12:41;;;;;;;7.83;6.70;;;9.40;99.90;;;;;;5081973;28;20255;-52
2021/05/29 04:15:09;;;;;;;11.97;7.23;;;9.40;99.90;;;;;;5075271;28;20196;-46
2021/05/29 04:17:36;;;;;;;10.87;6.83;;;9.50;99.90;;;;;;5061890;28;20232;-50
2021/05/29 04:20:04;;;;;;;15.20;8.13;;;9.40;99.90;;;;;;5068836;28;20947;-45
2021/05/29 04:22:30;;;;;;;11.23;7.83;;;9.40;99.90;;;;;;5071270;28;20234;-51
2021/05/29 04:24:56;;;;;;;15.87;7.90;;;9.50;99.90;;;;;;5080737;28;20806;-50
2021/05/29 04:27:22;;;;;;;10.80;7.13;;;9.50;99.90;;;;;;5079422;28;20222;-47
2021/05/29 04:29:48;;;;;;;10.60;7.93;;;9.40;99.90;;;;;;5079839;28;20251;-51
2021/05/29 04:32:15;;;;;;;10.70;7.47;;;9.40;99.90;;;;;;5067246;28;20198;-46
2021/05/29 04:34:42;;;;;;;13.30;7.90;;;9.40;99.90;;;;;;5081006;28;20260;-53
2021/05/29 04:37:08;;;;;;;10.87;7.67;;;9.50;99.90;;;;;;5082086;28;20999;-47
2021/05/29 04:39:34;;;;;;;9.87;7.47;;;9.50;99.90;;;;;;5082882;28;20205;-54
2021/05/29 04:42:00;;;;;;;13.93;8.10;;;9.50;99.90;;;;;;5078839;28;20218;-50
2021/05/29 04:44:26;;;;;;;11.77;7.10;;;9.50;99.90;;;;;;5078513;28;20679;-50
2021/05/29 04:46:52;;;;;;;12.40;7.43;;;9.50;99.90;;;;;;5065971;28;20233;-48
2021/05/29 04:49:20;;;;;;;10.37;7.97;;;9.50;99.90;;;;;;5080177;28;20201;-44
2021/05/29 04:51:46;;;;;;;13.93;7.90;;;9.50;99.90;;;;;;5078389;28;20302;-49
2021/05/29 04:54:13;;;;;;;9.43;6.40;;;9.50;99.90;;;;;;5077004;28;20194;-49
2021/05/29 04:56:39;;;;;;;8.67;6.43;;;9.50;99.90;;;;;;5080243;28;20209;-52
2021/05/29 04:59:06;;;;;;;8.60;6.10;;;9.50;99.90;;;;;;5076399;28;20206;-48
2021/05/29 05:01:32;;;;;;;9.13;5.87;;;9.50;99.90;;;;;;5082672;28;20206;-53
2021/05/29 05:03:59;;;;;;;9.27;6.17;;;9.50;99.90;;;;;;5065691;28;20817;-46
2021/05/29 05:06:27;;;;;;;8.43;6.57;;;9.50;99.90;;;;;;5079876;28;20210;-47
2021/05/29 05:08:54;;;;;;;8.17;6.37;;;9.50;99.90;;;;;;5071362;28;20938;-47
2021/05/29 05:11:20;;;;;;;8.80;6.63;;;9.50;99.90;;;;;;5066970;28;20212;-45
2021/05/29 05:13:47;;;;;;;10.23;6.33;;;9.50;99.90;;;;;;5063017;28;20205;-53
2021/05/29 05:16:14;;;;;;;11.53;6.73;;;9.50;99.90;;;;;;5078642;28;20197;-50
2021/05/29 05:18:40;;;;;;;9.97;6.30;;;9.50;99.90;;;;;;5069206;28;20201;-54
2021/05/29 05:21:06;;;;;;;9.80;6.27;;;9.50;99.90;;;;;;5072985;28;20213;-50
2021/05/29 05:23:33;;;;;;;10.73;6.67;;;9.50;99.90;;;;;;5071602;28;20574;-51
2021/05/29 05:25:59;;;;;;;12.53;7.30;;;9.60;99.90;;;;;;5073416;28;20202;-48
2021/05/29 05:28:28;;;;;;;10.10;6.23;;;9.60;99.90;;;;;;5068231;28;20232;-51
2021/05/29 05:30:55;;;;;;;6.73;5.60;;;9.60;99.90;;;;;;5071188;28;20205;-46
2021/05/29 05:33:21;;;;;;;8.27;5.80;;;9.60;99.90;;;;;;5079513;28;20206;-49
2021/05/29 05:35:48;;;;;;;7.67;5.37;;;9.60;99.90;;;;;;5062310;28;20210;-53
2021/05/29 05:38:14;;;;;;;9.43;6.20;;;9.60;99.90;;;;;;5070982;28;20313;-52
2021/05/29 05:40:41;;;;;;;7.43;5.63;;;9.60;99.90;;;;;;5067989;28;20258;-48
2021/05/29 05:43:07;;;;;;;10.47;5.93;;;9.60;99.90;;;;;;5074077;28;20806;-53
2021/05/29 05:45:34;;;;;;;8.80;6.00;;;9.60;99.90;;;;;;5067791;28;20198;-49
2021/05/29 05:48:00;;;;;;;14.53;6.10;;;9.50;99.90;;;;;;5079721;28;20228;-50
2021/05/29 05:50:26;;;;;;;7.30;5.40;;;9.50;99.90;;;;;;5052739;28;20206;-45
2021/05/29 05:52:52;;;;;;;11.13;5.93;;;9.50;99.90;;;;;;5079009;28;20201;-46
2021/05/29 05:55:18;;;;;;;7.20;5.10;;;9.50;99.90;;;;;;5076214;28;20206;-54
2021/05/29 05:57:45;;;;;;;6.83;5.07;;;9.50;99.90;;;;;;5072286;28;20221;-47
2021/05/29 06:00:15;;;;;;;10.60;5.63;;;9.50;99.90;;;;;;5070475;28;20205;-53
2021/05/29 06:02:42;;;;;;;8.30;5.13;;;9.50;99.90;;;;;;5076958;28;20214;-45
2021/05/29 06:05:09;;;;;;;8.47;5.03;;;9.50;99.90;;;;;;5071133;28;21050;-52
2021/05/29 06:07:35;;;;;;;5.90;4.40;;;9.60;99.90;;;;;;5065150;28;20210;-48
2021/05/29 06:10:03;;;;;;;5.17;4.50;;;9.70;99.90;;;;;;5074846;28;20197;-45
2021/05/29 06:12:29;;;;;;;7.50;5.13;;;9.60;99.90;;;;;;5068507;28;20213;-48
2021/05/29 06:18:02;;;;;;;8.10;4.97;;;9.70;99.90;;;;;;5079800;28;20240;-49
2021/05/29 06:20:28;;;;;;;6.77;5.30;;;9.70;99.90;;;;;;5078042;28;20190;-49
2021/05/29 06:22:55;;;;;;;5.83;4.07;;;9.80;99.90;;;;;;5067878;28;20226;-51
2021/05/29 06:25:21;;;;;;;8.27;4.43;;;9.80;99.90;;;;;;5078405;28;20193;-54
2021/05/29 06:27:47;;;;;;;11.17;5.47;;;9.80;99.90;;;;;;5082626;28;20222;-48
2021/05/29 06:30:15;;;;;;;8.77;4.80;;;9.80;99.90;;;;;;5071368;28;20201;-52
2021/05/29 06:32:41;;;;;;;10.73;6.10;;;9.80;99.90;;;;;;5078462;28;20198;-52
2021/05/29 06:35:08;;;;;;;11.17;4.73;;;9.90;99.90;;;;;;5081952;28;20197;-51
2021/05/29 06:37:35;;;;;;;5.63;4.90;;;9.90;99.90;;;;;;5059273;28;20324;-52
2021/05/29 06:40:03;;;;;;;6.00;4.70;;;9.90;99.90;;;;;;5081892;28;20230;-50
2021/05/29 06:42:29;;;;;;;7.83;4.83;;;9.90;99.90;;;;;;5073227;28;20211;-48
2021/05/29 06:44:55;;;;;;;6.17;4.43;;;10.00;99.90;;;;;;5079815;28;20811;-46
2021/05/29 06:47:22;;;;;;;5.63;4.97;;;10.00;99.90;;;;;;5073675;28;20221;-51
2021/05/29 06:49:48;;;;;;;6.97;5.07;;;10.00;99.90;;;;;;5078839;28;20191;-53
2021/05/29 06:52:16;;;;;;;5.63;4.73;;;10.10;99.90;;;;;;5071067;28;20243;-50
2021/05/29 06:54:53;;;;;;;5.33;4.43;;;10.10;99.90;;;;;;5068082;28;20259;-47
2021/05/29 07:00:07;;;;;;;6.23;4.67;;;10.10;99.90;;;;;;5076789;28;20209;-50
2021/05/29 07:02:34;;;;;;;6.53;4.10;;;10.10;99.90;;;;;;5078036;28;20221;-48
2021/05/29 07:05:00;;;;;;;5.60;4.37;;;10.10;99.90;;;;;;5078965;28;20628;-52
2021/05/29 07:07:27;;;;;;;5.50;3.93;;;10.20;99.90;;;;;;5079101;28;20202;-48
2021/05/29 07:09:53;;;;;;;5.67;3.77;;;10.20;99.90;;;;;;5071985;28;20667;-50
2021/05/29 07:12:20;;;;;;;5.40;3.83;;;10.30;99.90;;;;;;5081838;28;20194;-50
2021/05/29 07:14:46;;;;;;;6.40;4.33;;;10.30;99.90;;;;;;5083876;28;20600;-50
2021/05/29 07:17:13;;;;;;;6.30;4.27;;;10.30;99.90;;;;;;5079493;28;20656;-46
2021/05/29 07:19:40;;;;;;;6.10;4.17;;;10.30;99.90;;;;;;5082863;28;20500;-53
2021/05/29 07:22:06;;;;;;;8.53;4.10;;;10.30;99.90;;;;;;5084499;28;20726;-48
2021/05/29 07:24:33;;;;;;;7.80;4.67;;;10.40;99.90;;;;;;5082782;28;20254;-48
2021/05/29 07:26:59;;;;;;;4.67;4.17;;;10.50;99.90;;;;;;5072194;28;20226;-48
2021/05/29 07:29:27;;;;;;;5.97;4.03;;;10.50;99.90;;;;;;5074425;28;20206;-52
2021/05/29 07:31:53;;;;;;;6.40;4.63;;;10.50;99.90;;;;;;5085003;28;20281;-53
2021/05/29 07:34:20;;;;;;;6.73;4.03;;;10.60;99.90;;;;;;5076555;28;20686;-48
2021/05/29 07:36:47;;;;;;;4.10;3.70;;;10.70;99.90;;;;;;5085347;28;20263;-50
2021/05/29 07:39:14;;;;;;;6.27;3.77;;;10.80;99.90;;;;;;5082335;28;20204;-48
2021/05/29 07:41:40;;;;;;;4.57;4.17;;;10.90;99.90;;;;;;5069192;28;20336;-49
2021/05/29 07:44:07;;;;;;;3.70;3.30;;;11.00;99.90;;;;;;5084740;28;20289;-49
2021/05/29 07:46:34;;;;;;;10.47;4.87;;;11.10;99.90;;;;;;5082301;28;20286;-47
2021/05/29 07:49:01;;;;;;;5.97;4.47;;;11.10;99.90;;;;;;5079750;28;20198;-48
2021/05/29 07:51:27;;;;;;;9.00;4.40;;;11.10;99.90;;;;;;5076150;28;20194;-48
2021/05/29 07:53:54;;;;;;;5.43;4.30;;;11.10;99.90;;;;;;5081029;28;20190;-45
2021/05/29 07:56:21;;;;;;;7.43;4.87;;;11.20;99.90;;;;;;5075093;28;20202;-45
2021/05/29 07:58:49;;;;;;;4.40;3.90;;;11.20;99.90;;;;;;5068162;28;20885;-47
2021/05/29 08:01:16;;;;;;;6.70;4.50;;;11.20;99.90;;;;;;5081321;28;20194;-45
2021/05/29 08:03:42;;;;;;;6.27;4.53;;;11.20;99.90;;;;;;5077946;28;20206;-46
2021/05/29 08:06:11;;;;;;;5.10;4.17;;;11.20;99.90;;;;;;5084516;28;20186;-48
2021/05/29 08:08:38;;;;;;;5.43;4.87;;;11.20;99.90;;;;;;5080910;28;20190;-50
2021/05/29 08:11:05;;;;;;;5.27;4.33;;;11.30;99.90;;;;;;5075570;28;20244;-45
2021/05/29 08:13:31;;;;;;;6.23;5.07;;;11.30;99.90;;;;;;5067014;28;20577;-50
2021/05/29 08:15:58;;;;;;;5.40;4.83;;;11.30;99.90;;;;;;5084254;28;20216;-51
2021/05/29 08:18:24;;;;;;;7.53;4.33;;;11.30;99.90;;;;;;5076469;28;20796;-49
2021/05/29 08:20:51;;;;;;;7.93;4.73;;;11.40;99.90;;;;;;5084067;28;20566;-49
2021/05/29 08:23:18;;;;;;;7.03;4.20;;;11.40;99.90;;;;;;5075141;28;20699;-45
2021/05/29 08:25:46;;;;;;;6.93;4.27;;;11.40;99.90;;;;;;5083458;28;20277;-46
2021/05/29 08:28:13;;;;;;;4.63;4.17;;;11.50;99.90;;;;;;5073250;28;20220;-51
2021/05/29 08:30:39;;;;;;;5.57;3.83;;;11.50;99.90;;;;;;5078065;28;20280;-48
2021/05/29 08:33:06;;;;;;;5.00;3.27;;;11.50;99.90;;;;;;5083585;28;20566;-50
2021/05/29 08:35:33;;;;;;;7.20;4.00;;;11.50;99.90;;;;;;5076655;28;20212;-49
2021/05/29 08:37:59;;;;;;;5.00;3.57;;;11.60;99.90;;;;;;5078162;28;20220;-51
2021/05/29 08:40:25;;;;;;;7.00;3.50;;;11.60;99.90;;;;;;5083559;28;20196;-47
2021/05/29 08:42:51;;;;;;;4.43;3.63;;;11.60;99.90;;;;;;5083269;28;20957;-47
2021/05/29 08:45:20;;;;;;;5.17;3.47;;;11.60;99.90;;;;;;5061621;28;20202;-47
2021/05/29 08:47:47;;;;;;;3.77;3.47;;;11.70;99.90;;;;;;5084448;28;20222;-46
2021/05/29 08:50:13;;;;;;;4.23;3.27;;;11.80;99.90;;;;;;5075540;28;20204;-46
2021/05/29 08:52:39;;;;;;;5.90;3.60;;;11.80;99.90;;;;;;5091394;28;20888;-47
2021/05/29 08:55:07;;;;;;;5.03;3.73;;;11.70;99.90;;;;;;5084620;28;20285;-45
2021/05/29 08:57:34;;;;;;;5.00;3.20;;;11.80;99.90;;;;;;5081985;28;20220;-46
2021/05/29 09:00:00;;;;;;;4.80;3.30;;;11.90;99.90;;;;;;5071468;28;20255;-45
2021/05/29 09:02:27;;;;;;;4.67;3.20;;;12.00;99.90;;;;;;5074946;28;20759;-48
2021/05/29 09:05:06;;;;;;;6.60;4.07;;;12.00;99.90;;;;;;5077449;28;20809;-45
2021/05/29 09:07:32;;;;;;;6.67;3.50;;;12.10;99.90;;;;;;5073743;28;20221;-47
2021/05/29 09:10:15;;;;;;;4.93;3.33;;;12.10;99.90;;;;;;5080164;28;20213;-49
2021/05/29 09:12:59;;;;;;;5.10;3.43;;;12.00;99.90;;;;;;5074995;28;20716;-49
2021/05/29 09:15:42;;;;;;;6.03;3.53;;;12.10;99.90;;;;;;5071704;28;20573;-49
2021/05/29 09:18:30;;;;;;;6.47;3.27;;;12.10;99.90;;;;;;5074494;28;20237;-47
2021/05/29 09:21:26;;;;;;;11.33;3.87;;;12.20;99.90;;;;;;5074978;28;20198;-44
2021/05/29 09:23:54;;;;;;;5.77;3.93;;;12.20;99.90;;;;;;5071986;28;20198;-44
2021/05/29 09:26:22;;;;;;;3.87;3.50;;;12.30;99.90;;;;;;5079000;28;20293;-47
2021/05/29 09:28:50;;;;;;;4.57;4.03;;;12.40;99.90;;;;;;5089247;28;20209;-45
2021/05/29 09:31:17;;;;;;;6.83;3.60;;;12.40;99.90;;;;;;5058056;28;20251;-48
2021/05/29 09:33:45;;;;;;;7.60;3.67;;;12.50;99.90;;;;;;5079573;28;20256;-44
2021/05/29 09:36:13;;;;;;;4.53;3.73;;;12.60;99.90;;;;;;5074183;28;20206;-46
2021/05/29 09:38:40;;;;;;;4.27;3.70;;;12.60;99.90;;;;;;5080678;28;20320;-48
2021/05/29 09:41:19;;;;;;;4.23;3.57;;;12.70;99.90;;;;;;5081020;28;20205;-50
2021/05/29 09:43:56;;;;;;;3.80;3.40;;;12.60;99.90;;;;;;5082092;28;20190;-48
2021/05/29 09:46:22;;;;;;;5.63;3.80;;;12.70;99.90;;;;;;5076401;28;20585;-46
2021/05/29 09:48:57;;;;;;;4.13;3.63;;;12.70;99.90;;;;;;5067528;28;20686;-50
2021/05/29 09:51:25;;;;;;;7.33;3.80;;;12.80;99.90;;;;;;5078822;28;20285;-49
2021/05/29 09:53:53;;;;;;;5.77;3.77;;;12.90;99.90;;;;;;5081093;28;20216;-44
2021/05/29 09:56:25;;;;;;;8.60;4.60;;;13.10;99.90;;;;;;5083510;28;20674;-50
2021/05/29 09:59:00;;;;;;;4.50;4.10;;;13.10;99.90;;;;;;5079746;28;20220;-45
2021/05/29 10:01:37;;;;;;;5.23;3.50;;;13.20;99.90;;;;;;5083851;28;20197;-47
2021/05/29 10:04:06;;;;;;;4.90;3.43;;;13.10;99.90;;;;;;5060944;28;20206;-46
2021/05/29 10:06:32;;;;;;;5.07;4.07;;;13.00;99.90;;;;;;5084113;28;20218;-50
2021/05/29 10:08:59;;;;;;;4.07;3.40;;;13.00;99.90;;;;;;5075817;28;20197;-50
2021/05/29 10:11:26;;;;;;;6.47;4.50;;;13.20;99.90;;;;;;5064490;28;20647;-44
2021/05/29 10:13:53;;;;;;;5.50;3.87;;;13.40;99.90;;;;;;5082830;28;20190;-52
2021/05/29 10:16:20;;;;;;;6.77;4.30;;;13.50;99.90;;;;;;5077548;28;20704;-44
2021/05/29 10:18:49;;;;;;;4.43;4.03;;;13.50;99.90;;;;;;5063591;28;21427;-47
2021/05/29 10:21:17;;;;;;;4.80;3.73;;;13.60;99.90;;;;;;5082924;28;20186;-47
2021/05/29 10:23:46;;;;;;;6.67;3.70;;;13.60;99.90;;;;;;5076440;28;20209;-47
2021/05/29 10:26:13;;;;;;;4.33;3.83;;;13.70;99.90;;;;;;5081098;28;20201;-47
2021/05/29 10:28:40;;;;;;;4.13;3.40;;;13.80;99.90;;;;;;5069441;28;20206;-46
2021/05/29 10:31:07;;;;;;;5.03;4.20;;;13.60;99.90;;;;;;5075155;28;20228;-45
2021/05/29 10:33:39;;;;;;;6.27;4.23;;;13.60;99.90;;;;;;5072012;28;20262;-47
2021/05/29 10:36:06;;;;;;;6.13;3.97;;;13.80;99.90;;;;;;5069683;28;20212;-45
2021/05/29 10:38:44;;;;;;;6.07;4.03;;;13.90;99.90;;;;;;5075199;28;20226;-49
2021/05/29 10:41:11;;;;;;;5.37;4.77;;;13.80;99.90;;;;;;5083239;28;20273;-48
2021/05/29 10:43:37;;;;;;;6.43;3.70;;;13.70;99.90;;;;;;5087555;28;21045;-50
2021/05/29 10:46:07;;;;;;;10.53;3.97;;;13.80;99.90;;;;;;5084519;28;20193;-49
2021/05/29 10:48:45;;;;;;;4.63;4.00;;;14.00;99.90;;;;;;5076307;28;20217;-47
2021/05/29 10:51:12;;;;;;;4.80;3.57;;;14.00;99.90;;;;;;5069980;28;20262;-49
2021/05/29 10:53:48;;;;;;;4.23;3.47;;;14.00;99.90;;;;;;5082904;28;20813;-46
2021/05/29 10:56:34;;;;;;;4.60;4.20;;;14.20;99.90;;;;;;5082375;28;20185;-47
2021/05/29 10:59:09;;;;;;;6.03;4.03;;;14.10;99.90;;;;;;5072430;28;20222;-48
2021/05/29 11:02:01;;;;;;;6.67;3.70;;;14.00;99.90;;;;;;5082429;28;20783;-50
2021/05/29 11:04:28;;;;;;;6.17;3.60;;;14.00;99.90;;;;;;5061092;28;20309;-53
2021/05/29 11:06:55;;;;;;;4.40;3.57;;;14.10;99.90;;;;;;5086784;28;20770;-48
2021/05/29 11:10:04;;;;;;;3.97;3.40;;;14.10;99.90;;;;;;5080287;28;20251;-47
2021/05/29 11:12:52;;;;;;;4.10;3.70;;;14.30;99.90;;;;;;5070548;28;20201;-50
2021/05/29 11:15:21;;;;;;;4.20;3.70;;;14.30;99.90;;;;;;5083502;28;20217;-47
2021/05/29 11:18:10;;;;;;;5.77;4.13;;;14.30;99.90;;;;;;5075799;28;20214;-47
2021/05/29 11:21:07;;;;;;;5.03;3.83;;;14.30;99.90;;;;;;5060858;28;22681;-48
2021/05/29 11:23:33;;;;;;;4.17;3.77;;;14.40;99.90;;;;;;5063529;28;21199;-49
2021/05/29 11:25:59;;;;;;;6.00;3.87;;;14.30;99.90;;;;;;5082894;28;20231;-48
2021/05/29 11:28:26;;;;;;;7.20;3.50;;;14.20;99.90;;;;;;5073660;28;20454;-47
2021/05/29 11:30:58;;;;;;;4.13;3.70;;;14.30;99.90;;;;;;5086033;28;20194;-48
2021/05/29 11:33:24;;;;;;;4.63;3.40;;;14.40;99.90;;;;;;5085655;28;20213;-48
2021/05/29 11:35:50;;;;;;;4.40;4.00;;;14.60;99.90;;;;;;5080393;28;20655;-46
2021/05/29 11:38:21;;;;;;;8.27;3.90;;;14.50;99.90;;;;;;5064829;28;20214;-49
2021/05/29 11:40:50;;;;;;;4.43;4.03;;;14.50;99.90;;;;;;5081390;28;20202;-46
2021/05/29 11:43:19;;;;;;;7.37;3.97;;;14.60;99.90;;;;;;5078907;28;20941;-47
2021/05/29 11:45:47;;;;;;;4.53;3.80;;;14.50;99.90;;;;;;5084421;28;20233;-45
2021/05/29 11:48:14;;;;;;;5.70;3.33;;;14.50;99.90;;;;;;5075695;28;20843;-46
2021/05/29 11:50:41;;;;;;;4.97;3.60;;;14.60;99.90;;;;;;5082311;28;20209;-46
2021/05/29 11:53:09;;;;;;;5.87;4.30;;;14.50;99.90;;;;;;5072397;28;20255;-44
2021/05/29 11:55:52;;;;;;;5.73;3.87;;;14.60;99.90;;;;;;5082564;28;20205;-44
2021/05/29 11:58:19;;;;;;;4.23;3.83;;;14.70;99.90;;;;;;5080925;28;20219;-49
2021/05/29 12:01:00;;;;;;;6.47;3.83;;;15.00;99.90;;;;;;5077079;28;20330;-47
2021/05/29 12:03:41;;;;;;;4.17;3.77;;;15.20;99.90;;;;;;5083517;28;20221;-48
2021/05/29 12:06:08;;;;;;;7.33;3.97;;;15.30;99.90;;;;;;5070790;28;20261;-45
2021/05/29 12:08:57;;;;;;;5.40;4.30;;;15.30;99.90;;;;;;5078964;28;20249;-48
2021/05/29 12:11:25;;;;;;;4.63;3.97;;;15.20;99.90;;;;;;5076199;28;20202;-46
2021/05/29 12:14:06;;;;;;;7.30;3.70;;;15.30;99.90;;;;;;5084691;28;20604;-47
2021/05/29 12:16:35;;;;;;;5.60;4.10;;;15.50;99.90;;;;;;5084794;28;20267;-48
2021/05/29 12:19:02;;;;;;;6.40;4.10;;;15.60;99.90;;;;;;5080577;28;20788;-48
2021/05/29 12:21:51;;;;;;;7.40;4.70;;;15.30;99.90;;;;;;5077644;28;20251;-46
2021/05/29 12:24:19;;;;;;;4.10;3.70;;;15.00;99.90;;;;;;5063245;28;20258;-49
2021/05/29 12:26:46;;;;;;;6.90;4.17;;;14.80;99.90;;;;;;5072799;28;20217;-47
2021/05/29 12:29:14;;;;;;;4.97;4.10;;;15.00;99.90;;;;;;5080379;28;20201;-46
2021/05/29 12:31:51;;;;;;;5.03;4.23;;;15.10;99.90;;;;;;5089380;28;20276;-47
2021/05/29 12:34:17;;;;;;;4.60;4.17;;;15.40;99.90;;;;;;5076006;28;20198;-48
2021/05/29 12:37:11;;;;;;;6.13;4.87;;;15.40;99.90;;;;;;5085480;28;20628;-46
2021/05/29 12:39:49;;;;;;;7.13;4.20;;;15.40;99.90;;;;;;5059405;28;20301;-46
2021/05/29 12:42:30;;;;;;;4.87;4.40;;;15.50;99.90;;;;;;5076099;28;20201;-47
2021/05/29 12:44:58;;;;;;;5.80;4.60;;;15.60;99.90;;;;;;5080630;28;20201;-47
2021/05/29 12:47:28;;;;;;;5.33;4.00;;;15.50;99.90;;;;;;5082842;28;20276;-47
2021/05/29 12:49:56;;;;;;;5.40;4.47;;;15.40;99.90;;;;;;5078596;28;20194;-47
2021/05/29 12:52:28;;;;;;;4.47;3.90;;;15.30;99.90;;;;;;5076770;28;20190;-44
2021/05/29 12:54:55;;;;;;;4.13;3.80;;;15.20;99.90;;;;;;5066243;28;20238;-46
2021/05/29 12:57:23;;;;;;;5.00;4.50;;;15.50;99.90;;;;;;5081818;28;20213;-48
2021/05/29 12:59:50;;;;;;;5.50;4.63;;;15.90;99.90;;;;;;5076760;28;20202;-46
2021/05/29 13:02:42;;;;;;;5.30;4.77;;;16.10;99.90;;;;;;5080496;28;20206;-47